sensor_id;sensor_type;location;lat;lon;timestamp;P1;durP1;ratioP1;P2;durP2;ratioP2
82288;SDS011;71889;39.264;-120.910;2023-09-19T00:01:28;4.18;;;2.53;;
82288;SDS011;71889;39.264;-120.910;2023-09-19T00:03:57;4.45;;;2.92;;
82288;SDS011;71889;39.264;-120.910;2023-09-19T00:06:36;5.45;;;2.58;;
82288;SDS011;71889;39.264;-120.910;2023-09-19T00:09:04;6.25;;;2.28;;
82288;SDS011;71889;39.264;-120.910;2023-09-19T00:11:36;3.72;;;2.40;;
82288;SDS011;71889;39.264;-120.910;2023-09-19T00:14:03;6.28;;;2.67;;
82288;SDS011;71889;39.264;-120.910;2023-09-19T00:16:37;5.63;;;2.35;;
82288;SDS011;71889;39.264;-120.910;2023-09-19T00:19:03;6.63;;;2.70;;
82288;SDS011;71889;39.264;-120.910;2023-09-19T00:21:34;4.57;;;2.22;;
82288;SDS011;71889;39.264;-120.910;2023-09-19T00:24:03;5.68;;;2.38;;
82288;SDS011;71889;39.264;-120.910;2023-09-19T00:26:31;5.90;;;2.17;;
82288;SDS011;71889;39.264;-120.910;2023-09-19T00:28:59;4.70;;;2.55;;
82288;SDS011;71889;39.264;-120.910;2023-09-19T00:31:29;4.45;;;2.35;;
82288;SDS011;71889;39.264;-120.910;2023-09-19T00:33:56;6.30;;;2.55;;
82288;SDS011;71889;39.264;-120.910;2023-09-19T00:36:25;4.32;;;2.40;;
82288;SDS011;71889;39.264;-120.910;2023-09-19T00:38:52;4.30;;;2.35;;
82288;SDS011;71889;39.264;-120.910;2023-09-19T00:41:18;5.03;;;2.60;;
82288;SDS011;71889;39.264;-120.910;2023-09-19T00:43:46;5.65;;;3.00;;
82288;SDS011;71889;39.264;-120.910;2023-09-19T00:46:16;4.30;;;2.60;;
82288;SDS011;71889;39.264;-120.910;2023-09-19T00:48:43;4.55;;;2.58;;
82288;SDS011;71889;39.264;-120.910;2023-09-19T00:51:10;5.38;;;2.63;;
82288;SDS011;71889;39.264;-120.910;2023-09-19T00:53:39;4.22;;;2.70;;
82288;SDS011;71889;39.264;-120.910;2023-09-19T00:56:07;4.63;;;2.38;;
82288;SDS011;71889;39.264;-120.910;2023-09-19T00:58:35;5.32;;;2.20;;
82288;SDS011;71889;39.264;-120.910;2023-09-19T01:01:04;4.28;;;2.92;;
82288;SDS011;71889;39.264;-120.910;2023-09-19T01:03:33;6.88;;;3.05;;
82288;SDS011;71889;39.264;-120.910;2023-09-19T01:06:00;4.43;;;3.00;;
82288;SDS011;71889;39.264;-120.910;2023-09-19T01:08:28;4.18;;;2.45;;
82288;SDS011;71889;39.264;-120.910;2023-09-19T01:10:55;9.50;;;3.00;;
82288;SDS011;71889;39.264;-120.910;2023-09-19T01:13:29;7.90;;;2.85;;
82288;SDS011;71889;39.264;-120.910;2023-09-19T01:21:26;5.50;;;2.70;;
82288;SDS011;71889;39.264;-120.910;2023-09-19T01:24:07;5.30;;;2.22;;
82288;SDS011;71889;39.264;-120.910;2023-09-19T01:31:57;4.88;;;2.30;;
82288;SDS011;71889;39.264;-120.910;2023-09-19T01:34:27;7.00;;;2.67;;
82288;SDS011;71889;39.264;-120.910;2023-09-19T01:36:53;5.53;;;2.75;;
82288;SDS011;71889;39.264;-120.910;2023-09-19T01:39:20;4.78;;;2.78;;
82288;SDS011;71889;39.264;-120.910;2023-09-19T01:42:03;4.85;;;2.38;;
82288;SDS011;71889;39.264;-120.910;2023-09-19T01:47:00;6.68;;;3.10;;
82288;SDS011;71889;39.264;-120.910;2023-09-19T01:49:37;5.03;;;2.67;;
82288;SDS011;71889;39.264;-120.910;2023-09-19T01:52:12;7.75;;;3.05;;
82288;SDS011;71889;39.264;-120.910;2023-09-19T01:54:51;5.63;;;2.60;;
82288;SDS011;71889;39.264;-120.910;2023-09-19T01:57:33;5.18;;;2.40;;
82288;SDS011;71889;39.264;-120.910;2023-09-19T02:00:02;4.35;;;2.63;;
82288;SDS011;71889;39.264;-120.910;2023-09-19T02:02:35;3.88;;;2.58;;
82288;SDS011;71889;39.264;-120.910;2023-09-19T02:05:03;6.30;;;3.30;;
82288;SDS011;71889;39.264;-120.910;2023-09-19T02:07:30;3.55;;;2.50;;
82288;SDS011;71889;39.264;-120.910;2023-09-19T02:09:57;5.25;;;2.83;;
82288;SDS011;71889;39.264;-120.910;2023-09-19T02:12:26;5.07;;;2.72;;
82288;SDS011;71889;39.264;-120.910;2023-09-19T02:14:53;4.80;;;2.63;;
82288;SDS011;71889;39.264;-120.910;2023-09-19T02:17:19;6.63;;;2.95;;
82288;SDS011;71889;39.264;-120.910;2023-09-19T02:19:46;5.70;;;3.00;;
82288;SDS011;71889;39.264;-120.910;2023-09-19T02:22:13;6.30;;;3.00;;
82288;SDS011;71889;39.264;-120.910;2023-09-19T02:24:41;5.80;;;2.67;;
82288;SDS011;71889;39.264;-120.910;2023-09-19T02:27:08;7.03;;;2.58;;
82288;SDS011;71889;39.264;-120.910;2023-09-19T02:29:39;5.50;;;2.80;;
82288;SDS011;71889;39.264;-120.910;2023-09-19T02:32:06;6.80;;;2.95;;
82288;SDS011;71889;39.264;-120.910;2023-09-19T02:34:35;4.35;;;2.50;;
82288;SDS011;71889;39.264;-120.910;2023-09-19T02:37:04;6.40;;;2.90;;
82288;SDS011;71889;39.264;-120.910;2023-09-19T02:39:32;5.30;;;2.95;;
82288;SDS011;71889;39.264;-120.910;2023-09-19T02:41:59;5.50;;;3.25;;
82288;SDS011;71889;39.264;-120.910;2023-09-19T02:44:25;6.28;;;2.90;;
82288;SDS011;71889;39.264;-120.910;2023-09-19T02:46:53;5.53;;;2.83;;
82288;SDS011;71889;39.264;-120.910;2023-09-19T02:49:20;4.47;;;2.67;;
82288;SDS011;71889;39.264;-120.910;2023-09-19T02:51:47;6.40;;;3.25;;
82288;SDS011;71889;39.264;-120.910;2023-09-19T02:54:13;7.60;;;3.10;;
82288;SDS011;71889;39.264;-120.910;2023-09-19T02:56:41;5.50;;;2.72;;
82288;SDS011;71889;39.264;-120.910;2023-09-19T02:59:08;4.88;;;2.53;;
82288;SDS011;71889;39.264;-120.910;2023-09-19T03:01:38;5.88;;;2.92;;
82288;SDS011;71889;39.264;-120.910;2023-09-19T03:04:05;7.63;;;3.10;;
82288;SDS011;71889;39.264;-120.910;2023-09-19T03:06:31;7.05;;;2.80;;
82288;SDS011;71889;39.264;-120.910;2023-09-19T03:08:58;4.45;;;2.70;;
82288;SDS011;71889;39.264;-120.910;2023-09-19T03:11:31;6.03;;;3.08;;
82288;SDS011;71889;39.264;-120.910;2023-09-19T03:13:58;5.28;;;3.03;;
82288;SDS011;71889;39.264;-120.910;2023-09-19T03:16:25;7.88;;;3.08;;
82288;SDS011;71889;39.264;-120.910;2023-09-19T03:18:52;7.05;;;3.47;;
82288;SDS011;71889;39.264;-120.910;2023-09-19T03:21:18;5.63;;;2.85;;
82288;SDS011;71889;39.264;-120.910;2023-09-19T03:23:47;9.32;;;3.20;;
82288;SDS011;71889;39.264;-120.910;2023-09-19T03:26:13;5.38;;;2.70;;
82288;SDS011;71889;39.264;-120.910;2023-09-19T03:28:41;9.32;;;3.67;;
82288;SDS011;71889;39.264;-120.910;2023-09-19T03:31:11;5.70;;;2.97;;
82288;SDS011;71889;39.264;-120.910;2023-09-19T03:33:38;8.02;;;2.97;;
82288;SDS011;71889;39.264;-120.910;2023-09-19T03:36:05;6.18;;;3.13;;
82288;SDS011;71889;39.264;-120.910;2023-09-19T03:38:32;5.90;;;3.15;;
82288;SDS011;71889;39.264;-120.910;2023-09-19T03:41:02;5.07;;;2.90;;
82288;SDS011;71889;39.264;-120.910;2023-09-19T03:43:47;8.35;;;3.40;;
82288;SDS011;71889;39.264;-120.910;2023-09-19T03:46:15;9.30;;;3.40;;
82288;SDS011;71889;39.264;-120.910;2023-09-19T03:48:41;5.97;;;3.30;;
82288;SDS011;71889;39.264;-120.910;2023-09-19T03:51:09;8.48;;;3.83;;
82288;SDS011;71889;39.264;-120.910;2023-09-19T03:53:36;6.53;;;3.45;;
82288;SDS011;71889;39.264;-120.910;2023-09-19T03:56:02;5.22;;;2.83;;
82288;SDS011;71889;39.264;-120.910;2023-09-19T03:58:29;5.40;;;3.05;;
82288;SDS011;71889;39.264;-120.910;2023-09-19T04:03:42;6.10;;;3.17;;
82288;SDS011;71889;39.264;-120.910;2023-09-19T04:06:15;6.40;;;3.10;;
82288;SDS011;71889;39.264;-120.910;2023-09-19T04:08:45;5.47;;;3.10;;
82288;SDS011;71889;39.264;-120.910;2023-09-19T04:11:13;8.25;;;3.80;;
82288;SDS011;71889;39.264;-120.910;2023-09-19T04:13:40;7.10;;;3.30;;
82288;SDS011;71889;39.264;-120.910;2023-09-19T04:16:06;5.28;;;2.88;;
82288;SDS011;71889;39.264;-120.910;2023-09-19T04:18:33;8.25;;;3.33;;
82288;SDS011;71889;39.264;-120.910;2023-09-19T04:21:03;6.40;;;3.20;;
82288;SDS011;71889;39.264;-120.910;2023-09-19T04:23:31;6.18;;;4.22;;
82288;SDS011;71889;39.264;-120.910;2023-09-19T04:25:58;6.93;;;3.20;;
82288;SDS011;71889;39.264;-120.910;2023-09-19T04:28:25;6.97;;;3.20;;
82288;SDS011;71889;39.264;-120.910;2023-09-19T04:30:53;7.75;;;2.92;;
82288;SDS011;71889;39.264;-120.910;2023-09-19T04:33:20;7.07;;;3.45;;
82288;SDS011;71889;39.264;-120.910;2023-09-19T04:35:48;5.38;;;2.95;;
82288;SDS011;71889;39.264;-120.910;2023-09-19T04:38:17;10.55;;;3.38;;
82288;SDS011;71889;39.264;-120.910;2023-09-19T04:40:45;6.35;;;3.45;;
82288;SDS011;71889;39.264;-120.910;2023-09-19T04:43:11;8.30;;;3.53;;
82288;SDS011;71889;39.264;-120.910;2023-09-19T04:45:38;7.07;;;3.35;;
82288;SDS011;71889;39.264;-120.910;2023-09-19T04:48:05;9.98;;;3.50;;
82288;SDS011;71889;39.264;-120.910;2023-09-19T04:50:34;5.43;;;3.15;;
82288;SDS011;71889;39.264;-120.910;2023-09-19T04:53:02;6.00;;;3.03;;
82288;SDS011;71889;39.264;-120.910;2023-09-19T04:55:30;4.57;;;2.83;;
82288;SDS011;71889;39.264;-120.910;2023-09-19T04:57:58;5.50;;;3.20;;
82288;SDS011;71889;39.264;-120.910;2023-09-19T05:00:24;6.22;;;3.08;;
82288;SDS011;71889;39.264;-120.910;2023-09-19T05:02:56;4.72;;;3.08;;
82288;SDS011;71889;39.264;-120.910;2023-09-19T05:05:22;4.72;;;3.08;;
82288;SDS011;71889;39.264;-120.910;2023-09-19T05:10:19;5.88;;;2.83;;
82288;SDS011;71889;39.264;-120.910;2023-09-19T05:12:46;5.50;;;3.47;;
82288;SDS011;71889;39.264;-120.910;2023-09-19T05:15:13;10.80;;;3.75;;
82288;SDS011;71889;39.264;-120.910;2023-09-19T05:17:47;5.82;;;3.38;;
82288;SDS011;71889;39.264;-120.910;2023-09-19T05:20:15;6.95;;;3.03;;
82288;SDS011;71889;39.264;-120.910;2023-09-19T05:22:43;6.30;;;3.25;;
82288;SDS011;71889;39.264;-120.910;2023-09-19T05:25:11;5.63;;;3.30;;
82288;SDS011;71889;39.264;-120.910;2023-09-19T05:27:43;6.28;;;3.60;;
82288;SDS011;71889;39.264;-120.910;2023-09-19T05:30:11;10.32;;;3.70;;
82288;SDS011;71889;39.264;-120.910;2023-09-19T05:32:40;5.70;;;3.38;;
82288;SDS011;71889;39.264;-120.910;2023-09-19T05:35:06;7.90;;;3.40;;
82288;SDS011;71889;39.264;-120.910;2023-09-19T05:37:35;6.53;;;3.20;;
82288;SDS011;71889;39.264;-120.910;2023-09-19T05:40:02;7.45;;;3.50;;
82288;SDS011;71889;39.264;-120.910;2023-09-19T05:42:32;7.13;;;2.92;;
82288;SDS011;71889;39.264;-120.910;2023-09-19T05:44:59;5.40;;;3.42;;
82288;SDS011;71889;39.264;-120.910;2023-09-19T05:47:26;7.15;;;3.55;;
82288;SDS011;71889;39.264;-120.910;2023-09-19T05:49:52;8.57;;;3.75;;
82288;SDS011;71889;39.264;-120.910;2023-09-19T05:52:20;6.65;;;3.55;;
82288;SDS011;71889;39.264;-120.910;2023-09-19T05:54:47;7.07;;;3.15;;
82288;SDS011;71889;39.264;-120.910;2023-09-19T05:57:15;5.65;;;3.47;;
82288;SDS011;71889;39.264;-120.910;2023-09-19T05:59:42;6.80;;;3.13;;
82288;SDS011;71889;39.264;-120.910;2023-09-19T06:02:08;9.65;;;3.95;;
82288;SDS011;71889;39.264;-120.910;2023-09-19T06:04:36;6.45;;;3.47;;
82288;SDS011;71889;39.264;-120.910;2023-09-19T06:09:32;4.43;;;2.88;;
82288;SDS011;71889;39.264;-120.910;2023-09-19T06:11:59;7.38;;;3.42;;
82288;SDS011;71889;39.264;-120.910;2023-09-19T06:14:29;8.50;;;3.80;;
82288;SDS011;71889;39.264;-120.910;2023-09-19T06:16:56;6.07;;;3.63;;
82288;SDS011;71889;39.264;-120.910;2023-09-19T06:19:25;7.85;;;3.50;;
82288;SDS011;71889;39.264;-120.910;2023-09-19T06:24:19;7.50;;;3.30;;
82288;SDS011;71889;39.264;-120.910;2023-09-19T06:26:46;13.13;;;3.25;;
82288;SDS011;71889;39.264;-120.910;2023-09-19T06:29:13;5.57;;;3.25;;
82288;SDS011;71889;39.264;-120.910;2023-09-19T06:31:39;6.88;;;3.17;;
82288;SDS011;71889;39.264;-120.910;2023-09-19T06:34:07;5.95;;;3.42;;
82288;SDS011;71889;39.264;-120.910;2023-09-19T06:36:34;7.75;;;3.42;;
82288;SDS011;71889;39.264;-120.910;2023-09-19T06:39:00;5.82;;;2.88;;
82288;SDS011;71889;39.264;-120.910;2023-09-19T06:41:29;8.85;;;3.50;;
82288;SDS011;71889;39.264;-120.910;2023-09-19T06:43:56;9.77;;;3.38;;
82288;SDS011;71889;39.264;-120.910;2023-09-19T06:46:23;7.18;;;3.65;;
82288;SDS011;71889;39.264;-120.910;2023-09-19T06:48:50;6.32;;;3.60;;
82288;SDS011;71889;39.264;-120.910;2023-09-19T06:51:20;4.22;;;2.85;;
82288;SDS011;71889;39.264;-120.910;2023-09-19T06:53:46;5.80;;;2.92;;
82288;SDS011;71889;39.264;-120.910;2023-09-19T06:56:14;8.35;;;3.60;;
82288;SDS011;71889;39.264;-120.910;2023-09-19T06:58:41;6.18;;;3.40;;
82288;SDS011;71889;39.264;-120.910;2023-09-19T07:01:08;6.85;;;3.30;;
82288;SDS011;71889;39.264;-120.910;2023-09-19T07:03:35;6.38;;;3.47;;
82288;SDS011;71889;39.264;-120.910;2023-09-19T07:06:02;5.35;;;3.05;;
82288;SDS011;71889;39.264;-120.910;2023-09-19T07:08:29;5.90;;;3.33;;
82288;SDS011;71889;39.264;-120.910;2023-09-19T07:10:56;7.80;;;3.03;;
82288;SDS011;71889;39.264;-120.910;2023-09-19T07:13:23;4.47;;;3.05;;
82288;SDS011;71889;39.264;-120.910;2023-09-19T07:15:50;5.20;;;3.40;;
82288;SDS011;71889;39.264;-120.910;2023-09-19T07:18:17;6.20;;;3.22;;
82288;SDS011;71889;39.264;-120.910;2023-09-19T07:20:44;7.43;;;3.20;;
82288;SDS011;71889;39.264;-120.910;2023-09-19T07:23:17;8.13;;;3.25;;
82288;SDS011;71889;39.264;-120.910;2023-09-19T07:25:47;6.82;;;3.28;;
82288;SDS011;71889;39.264;-120.910;2023-09-19T07:28:14;5.80;;;2.78;;
82288;SDS011;71889;39.264;-120.910;2023-09-19T07:30:42;8.02;;;3.67;;
82288;SDS011;71889;39.264;-120.910;2023-09-19T07:33:09;5.63;;;3.00;;
82288;SDS011;71889;39.264;-120.910;2023-09-19T07:35:38;8.95;;;3.55;;
82288;SDS011;71889;39.264;-120.910;2023-09-19T07:38:06;6.30;;;2.83;;
82288;SDS011;71889;39.264;-120.910;2023-09-19T07:40:33;6.63;;;3.22;;
82288;SDS011;71889;39.264;-120.910;2023-09-19T07:43:01;5.47;;;2.75;;
82288;SDS011;71889;39.264;-120.910;2023-09-19T07:45:32;5.45;;;3.00;;
82288;SDS011;71889;39.264;-120.910;2023-09-19T07:50:30;6.43;;;3.22;;
82288;SDS011;71889;39.264;-120.910;2023-09-19T07:52:57;6.40;;;3.28;;
82288;SDS011;71889;39.264;-120.910;2023-09-19T07:55:24;6.38;;;2.78;;
82288;SDS011;71889;39.264;-120.910;2023-09-19T07:57:54;5.20;;;3.03;;
82288;SDS011;71889;39.264;-120.910;2023-09-19T08:00:21;8.90;;;3.17;;
82288;SDS011;71889;39.264;-120.910;2023-09-19T08:02:48;8.18;;;3.10;;
82288;SDS011;71889;39.264;-120.910;2023-09-19T08:05:14;5.93;;;3.13;;
82288;SDS011;71889;39.264;-120.910;2023-09-19T08:07:42;8.00;;;3.58;;
82288;SDS011;71889;39.264;-120.910;2023-09-19T08:10:10;8.85;;;3.58;;
82288;SDS011;71889;39.264;-120.910;2023-09-19T08:12:39;6.72;;;3.17;;
82288;SDS011;71889;39.264;-120.910;2023-09-19T08:15:21;6.22;;;2.97;;
82288;SDS011;71889;39.264;-120.910;2023-09-19T08:17:48;7.65;;;3.65;;
82288;SDS011;71889;39.264;-120.910;2023-09-19T08:20:15;4.57;;;2.72;;
82288;SDS011;71889;39.264;-120.910;2023-09-19T08:22:50;8.27;;;2.88;;
82288;SDS011;71889;39.264;-120.910;2023-09-19T08:25:21;4.30;;;2.78;;
82288;SDS011;71889;39.264;-120.910;2023-09-19T08:27:48;10.75;;;3.55;;
82288;SDS011;71889;39.264;-120.910;2023-09-19T08:30:33;5.78;;;3.50;;
82288;SDS011;71889;39.264;-120.910;2023-09-19T08:33:00;5.82;;;3.30;;
82288;SDS011;71889;39.264;-120.910;2023-09-19T08:35:29;7.25;;;3.25;;
82288;SDS011;71889;39.264;-120.910;2023-09-19T08:37:56;7.53;;;3.05;;
82288;SDS011;71889;39.264;-120.910;2023-09-19T08:40:23;6.22;;;3.35;;
82288;SDS011;71889;39.264;-120.910;2023-09-19T08:42:51;5.97;;;3.35;;
82288;SDS011;71889;39.264;-120.910;2023-09-19T08:45:19;6.22;;;4.00;;
82288;SDS011;71889;39.264;-120.910;2023-09-19T08:50:48;8.38;;;3.55;;
82288;SDS011;71889;39.264;-120.910;2023-09-19T08:53:19;6.30;;;4.18;;
82288;SDS011;71889;39.264;-120.910;2023-09-19T08:55:47;7.20;;;4.13;;
82288;SDS011;71889;39.264;-120.910;2023-09-19T08:58:19;7.75;;;4.20;;
82288;SDS011;71889;39.264;-120.910;2023-09-19T09:00:48;8.63;;;4.30;;
82288;SDS011;71889;39.264;-120.910;2023-09-19T09:03:15;8.45;;;4.20;;
82288;SDS011;71889;39.264;-120.910;2023-09-19T09:05:44;8.13;;;4.30;;
82288;SDS011;71889;39.264;-120.910;2023-09-19T09:08:12;8.52;;;4.13;;
82288;SDS011;71889;39.264;-120.910;2023-09-19T09:10:40;11.00;;;5.03;;
82288;SDS011;71889;39.264;-120.910;2023-09-19T09:13:07;11.45;;;5.38;;
82288;SDS011;71889;39.264;-120.910;2023-09-19T09:15:35;9.35;;;5.00;;
82288;SDS011;71889;39.264;-120.910;2023-09-19T09:18:02;9.93;;;5.53;;
82288;SDS011;71889;39.264;-120.910;2023-09-19T09:20:30;16.08;;;5.68;;
82288;SDS011;71889;39.264;-120.910;2023-09-19T09:22:57;7.82;;;4.97;;
82288;SDS011;71889;39.264;-120.910;2023-09-19T09:25:50;10.98;;;5.75;;
82288;SDS011;71889;39.264;-120.910;2023-09-19T09:28:24;9.25;;;4.97;;
82288;SDS011;71889;39.264;-120.910;2023-09-19T09:30:53;11.52;;;5.20;;
82288;SDS011;71889;39.264;-120.910;2023-09-19T09:33:20;15.10;;;5.38;;
82288;SDS011;71889;39.264;-120.910;2023-09-19T09:35:57;11.52;;;5.53;;
82288;SDS011;71889;39.264;-120.910;2023-09-19T09:38:48;8.93;;;5.38;;
82288;SDS011;71889;39.264;-120.910;2023-09-19T09:41:15;12.25;;;5.60;;
82288;SDS011;71889;39.264;-120.910;2023-09-19T09:43:52;10.68;;;5.40;;
82288;SDS011;71889;39.264;-120.910;2023-09-19T09:46:21;12.13;;;5.80;;
82288;SDS011;71889;39.264;-120.910;2023-09-19T09:48:48;9.45;;;5.60;;
82288;SDS011;71889;39.264;-120.910;2023-09-19T09:51:40;11.60;;;5.72;;
82288;SDS011;71889;39.264;-120.910;2023-09-19T09:54:28;10.18;;;5.40;;
82288;SDS011;71889;39.264;-120.910;2023-09-19T09:57:02;13.32;;;5.95;;
82288;SDS011;71889;39.264;-120.910;2023-09-19T09:59:50;9.23;;;5.25;;
82288;SDS011;71889;39.264;-120.910;2023-09-19T10:02:28;8.25;;;5.22;;
82288;SDS011;71889;39.264;-120.910;2023-09-19T10:04:58;11.35;;;5.50;;
82288;SDS011;71889;39.264;-120.910;2023-09-19T10:07:41;11.60;;;5.45;;
82288;SDS011;71889;39.264;-120.910;2023-09-19T10:10:14;10.35;;;5.63;;
82288;SDS011;71889;39.264;-120.910;2023-09-19T10:12:45;10.68;;;6.05;;
82288;SDS011;71889;39.264;-120.910;2023-09-19T10:15:14;12.02;;;5.68;;
82288;SDS011;71889;39.264;-120.910;2023-09-19T10:17:42;9.07;;;5.05;;
82288;SDS011;71889;39.264;-120.910;2023-09-19T10:20:11;11.70;;;5.90;;
82288;SDS011;71889;39.264;-120.910;2023-09-19T10:22:48;10.52;;;5.82;;
82288;SDS011;71889;39.264;-120.910;2023-09-19T10:25:26;10.52;;;5.90;;
82288;SDS011;71889;39.264;-120.910;2023-09-19T10:28:02;12.77;;;6.05;;
82288;SDS011;71889;39.264;-120.910;2023-09-19T10:30:29;11.88;;;6.10;;
82288;SDS011;71889;39.264;-120.910;2023-09-19T10:33:01;11.45;;;5.95;;
82288;SDS011;71889;39.264;-120.910;2023-09-19T10:35:28;12.15;;;6.22;;
82288;SDS011;71889;39.264;-120.910;2023-09-19T10:37:57;11.20;;;6.43;;
82288;SDS011;71889;39.264;-120.910;2023-09-19T10:40:24;9.93;;;5.75;;
82288;SDS011;71889;39.264;-120.910;2023-09-19T10:43:03;13.18;;;6.55;;
82288;SDS011;71889;39.264;-120.910;2023-09-19T10:45:33;11.23;;;6.25;;
82288;SDS011;71889;39.264;-120.910;2023-09-19T10:48:01;12.77;;;6.00;;
82288;SDS011;71889;39.264;-120.910;2023-09-19T10:51:15;12.63;;;6.13;;
82288;SDS011;71889;39.264;-120.910;2023-09-19T10:53:24;9.93;;;5.55;;
82288;SDS011;71889;39.264;-120.910;2023-09-19T10:55:56;12.02;;;5.18;;
82288;SDS011;71889;39.264;-120.910;2023-09-19T10:58:28;12.90;;;6.45;;
82288;SDS011;71889;39.264;-120.910;2023-09-19T11:00:58;9.40;;;5.95;;
82288;SDS011;71889;39.264;-120.910;2023-09-19T11:03:32;12.15;;;6.07;;
82288;SDS011;71889;39.264;-120.910;2023-09-19T11:06:06;14.43;;;6.15;;
82288;SDS011;71889;39.264;-120.910;2023-09-19T11:11:41;13.68;;;5.88;;
82288;SDS011;71889;39.264;-120.910;2023-09-19T11:14:15;11.40;;;5.93;;
82288;SDS011;71889;39.264;-120.910;2023-09-19T11:20:14;13.95;;;5.95;;
82288;SDS011;71889;39.264;-120.910;2023-09-19T11:22:14;12.95;;;6.47;;
82288;SDS011;71889;39.264;-120.910;2023-09-19T11:24:41;14.25;;;5.82;;
82288;SDS011;71889;39.264;-120.910;2023-09-19T11:27:11;12.25;;;6.32;;
82288;SDS011;71889;39.264;-120.910;2023-09-19T11:29:39;12.85;;;6.65;;
82288;SDS011;71889;39.264;-120.910;2023-09-19T11:32:06;11.32;;;6.25;;
82288;SDS011;71889;39.264;-120.910;2023-09-19T11:42:43;11.18;;;6.18;;
82288;SDS011;71889;39.264;-120.910;2023-09-19T11:48:00;11.02;;;6.57;;
82288;SDS011;71889;39.264;-120.910;2023-09-19T11:50:27;13.23;;;6.20;;
82288;SDS011;71889;39.264;-120.910;2023-09-19T11:52:54;10.68;;;6.15;;
82288;SDS011;71889;39.264;-120.910;2023-09-19T11:55:20;10.95;;;6.63;;
82288;SDS011;71889;39.264;-120.910;2023-09-19T11:57:48;12.18;;;6.18;;
82288;SDS011;71889;39.264;-120.910;2023-09-19T12:00:19;12.00;;;6.43;;
82288;SDS011;71889;39.264;-120.910;2023-09-19T12:02:46;11.73;;;6.07;;
82288;SDS011;71889;39.264;-120.910;2023-09-19T12:05:14;9.63;;;6.00;;
82288;SDS011;71889;39.264;-120.910;2023-09-19T12:07:42;11.00;;;6.22;;
82288;SDS011;71889;39.264;-120.910;2023-09-19T12:10:11;12.45;;;5.88;;
82288;SDS011;71889;39.264;-120.910;2023-09-19T12:12:46;10.20;;;5.60;;
82288;SDS011;71889;39.264;-120.910;2023-09-19T12:15:14;12.73;;;6.45;;
82288;SDS011;71889;39.264;-120.910;2023-09-19T12:17:41;11.52;;;6.03;;
82288;SDS011;71889;39.264;-120.910;2023-09-19T12:20:10;10.90;;;6.05;;
82288;SDS011;71889;39.264;-120.910;2023-09-19T12:22:40;12.27;;;6.15;;
82288;SDS011;71889;39.264;-120.910;2023-09-19T12:25:08;12.05;;;6.03;;
82288;SDS011;71889;39.264;-120.910;2023-09-19T12:27:46;14.02;;;6.03;;
82288;SDS011;71889;39.264;-120.910;2023-09-19T12:30:15;12.18;;;6.47;;
82288;SDS011;71889;39.264;-120.910;2023-09-19T12:32:46;9.48;;;6.07;;
82288;SDS011;71889;39.264;-120.910;2023-09-19T12:38:23;12.23;;;6.05;;
82288;SDS011;71889;39.264;-120.910;2023-09-19T12:40:50;11.40;;;6.35;;
82288;SDS011;71889;39.264;-120.910;2023-09-19T12:43:18;13.20;;;6.05;;
82288;SDS011;71889;39.264;-120.910;2023-09-19T12:45:47;11.50;;;5.72;;
82288;SDS011;71889;39.264;-120.910;2023-09-19T12:48:23;11.55;;;6.00;;
82288;SDS011;71889;39.264;-120.910;2023-09-19T12:51:03;10.23;;;6.32;;
82288;SDS011;71889;39.264;-120.910;2023-09-19T12:53:33;11.45;;;6.25;;
82288;SDS011;71889;39.264;-120.910;2023-09-19T12:56:12;13.98;;;5.97;;
82288;SDS011;71889;39.264;-120.910;2023-09-19T13:01:22;10.43;;;6.10;;
82288;SDS011;71889;39.264;-120.910;2023-09-19T13:06:47;14.27;;;6.15;;
82288;SDS011;71889;39.264;-120.910;2023-09-19T13:09:15;10.30;;;5.60;;
82288;SDS011;71889;39.264;-120.910;2023-09-19T13:11:42;9.02;;;5.40;;
82288;SDS011;71889;39.264;-120.910;2023-09-19T13:14:23;16.20;;;5.80;;
82288;SDS011;71889;39.264;-120.910;2023-09-19T13:19:42;12.27;;;6.35;;
82288;SDS011;71889;39.264;-120.910;2023-09-19T13:24:56;10.75;;;6.40;;
82288;SDS011;71889;39.264;-120.910;2023-09-19T13:27:24;9.68;;;6.05;;
82288;SDS011;71889;39.264;-120.910;2023-09-19T13:29:52;9.93;;;5.85;;
82288;SDS011;71889;39.264;-120.910;2023-09-19T13:32:22;12.70;;;5.90;;
82288;SDS011;71889;39.264;-120.910;2023-09-19T13:34:52;11.98;;;5.95;;
82288;SDS011;71889;39.264;-120.910;2023-09-19T13:37:19;10.95;;;5.97;;
82288;SDS011;71889;39.264;-120.910;2023-09-19T13:39:45;12.30;;;6.30;;
82288;SDS011;71889;39.264;-120.910;2023-09-19T13:42:13;13.55;;;6.38;;
82288;SDS011;71889;39.264;-120.910;2023-09-19T13:44:41;15.80;;;6.35;;
82288;SDS011;71889;39.264;-120.910;2023-09-19T13:47:10;12.02;;;5.68;;
82288;SDS011;71889;39.264;-120.910;2023-09-19T13:49:39;11.90;;;5.63;;
82288;SDS011;71889;39.264;-120.910;2023-09-19T13:52:05;13.35;;;5.88;;
82288;SDS011;71889;39.264;-120.910;2023-09-19T13:54:32;12.48;;;6.13;;
82288;SDS011;71889;39.264;-120.910;2023-09-19T13:56:59;11.48;;;6.10;;
82288;SDS011;71889;39.264;-120.910;2023-09-19T13:59:26;12.93;;;6.18;;
82288;SDS011;71889;39.264;-120.910;2023-09-19T14:01:54;11.45;;;6.35;;
82288;SDS011;71889;39.264;-120.910;2023-09-19T14:04:21;11.20;;;5.82;;
82288;SDS011;71889;39.264;-120.910;2023-09-19T14:06:47;13.52;;;6.22;;
82288;SDS011;71889;39.264;-120.910;2023-09-19T14:09:14;9.68;;;6.10;;
82288;SDS011;71889;39.264;-120.910;2023-09-19T14:11:45;14.02;;;6.20;;
82288;SDS011;71889;39.264;-120.910;2023-09-19T14:14:14;11.82;;;6.07;;
82288;SDS011;71889;39.264;-120.910;2023-09-19T14:16:41;12.25;;;5.82;;
82288;SDS011;71889;39.264;-120.910;2023-09-19T14:19:09;12.10;;;6.20;;
82288;SDS011;71889;39.264;-120.910;2023-09-19T14:21:35;13.50;;;6.20;;
82288;SDS011;71889;39.264;-120.910;2023-09-19T14:24:03;12.20;;;6.32;;
82288;SDS011;71889;39.264;-120.910;2023-09-19T14:26:37;10.20;;;5.75;;
82288;SDS011;71889;39.264;-120.910;2023-09-19T14:29:04;13.82;;;5.97;;
82288;SDS011;71889;39.264;-120.910;2023-09-19T14:31:38;13.48;;;6.55;;
82288;SDS011;71889;39.264;-120.910;2023-09-19T14:34:59;12.43;;;6.22;;
82288;SDS011;71889;39.264;-120.910;2023-09-19T15:08:31;12.63;;;5.63;;
82288;SDS011;71889;39.264;-120.910;2023-09-19T15:11:00;15.30;;;5.75;;
82288;SDS011;71889;39.264;-120.910;2023-09-19T15:13:32;11.98;;;6.10;;
82288;SDS011;71889;39.264;-120.910;2023-09-19T15:15:59;11.27;;;5.70;;
82288;SDS011;71889;39.264;-120.910;2023-09-19T15:18:30;10.07;;;5.85;;
82288;SDS011;71889;39.264;-120.910;2023-09-19T15:21:02;11.00;;;5.65;;
82288;SDS011;71889;39.264;-120.910;2023-09-19T15:23:32;8.02;;;5.20;;
82288;SDS011;71889;39.264;-120.910;2023-09-19T15:26:05;11.73;;;5.88;;
82288;SDS011;71889;39.264;-120.910;2023-09-19T15:28:33;11.75;;;6.22;;
82288;SDS011;71889;39.264;-120.910;2023-09-19T15:31:00;10.43;;;6.68;;
82288;SDS011;71889;39.264;-120.910;2023-09-19T15:33:27;12.02;;;6.07;;
82288;SDS011;71889;39.264;-120.910;2023-09-19T15:41:19;13.45;;;6.13;;
82288;SDS011;71889;39.264;-120.910;2023-09-19T15:43:49;9.50;;;5.75;;
82288;SDS011;71889;39.264;-120.910;2023-09-19T15:46:15;11.70;;;5.22;;
82288;SDS011;71889;39.264;-120.910;2023-09-19T15:48:42;10.40;;;5.80;;
82288;SDS011;71889;39.264;-120.910;2023-09-19T15:51:11;11.15;;;5.65;;
82288;SDS011;71889;39.264;-120.910;2023-09-19T15:53:46;11.35;;;5.72;;